sensor_id;sensor_type;location;lat;lon;timestamp;pressure;altitude;pressure_sealevel;temperature;humidity
75460;BME280;64039;53.060;9.342;2024-03-29T00:01:51;99002.47;;;5.79;100.00
75460;BME280;64039;53.060;9.342;2024-03-29T00:04:17;99003.34;;;5.78;100.00
75460;BME280;64039;53.060;9.342;2024-03-29T00:06:43;98999.03;;;5.77;100.00
75460;BME280;64039;53.060;9.342;2024-03-29T00:09:08;98994.66;;;5.70;100.00
75460;BME280;64039;53.060;9.342;2024-03-29T00:11:34;98992.03;;;5.69;100.00
75460;BME280;64039;53.060;9.342;2024-03-29T00:13:59;98995.50;;;5.71;100.00
75460;BME280;64039;53.060;9.342;2024-03-29T00:16:25;98985.13;;;5.64;100.00
75460;BME280;64039;53.060;9.342;2024-03-29T00:18:54;98984.09;;;5.51;100.00
75460;BME280;64039;53.060;9.342;2024-03-29T00:21:19;98986.63;;;5.45;100.00
75460;BME280;64039;53.060;9.342;2024-03-29T00:23:45;98987.41;;;5.41;100.00
75460;BME280;64039;53.060;9.342;2024-03-29T00:26:10;98988.25;;;5.39;100.00
75460;BME280;64039;53.060;9.342;2024-03-29T00:28:36;98989.97;;;5.40;100.00
75460;BME280;64039;53.060;9.342;2024-03-29T00:31:02;98983.88;;;5.33;100.00
75460;BME280;64039;53.060;9.342;2024-03-29T00:33:27;98995.16;;;5.43;100.00
75460;BME280;64039;53.060;9.342;2024-03-29T00:35:53;98989.94;;;5.37;100.00
75460;BME280;64039;53.060;9.342;2024-03-29T00:38:18;98990.75;;;5.34;100.00
75460;BME280;64039;53.060;9.342;2024-03-29T00:40:44;98991.59;;;5.33;100.00
75460;BME280;64039;53.060;9.342;2024-03-29T00:43:09;98990.56;;;5.20;100.00
75460;BME280;64039;53.060;9.342;2024-03-29T00:45:35;99001.66;;;5.13;100.00
75460;BME280;64039;53.060;9.342;2024-03-29T00:48:00;99006.00;;;5.17;100.00
75460;BME280;64039;53.060;9.342;2024-03-29T00:50:26;99001.66;;;5.11;100.00
75460;BME280;64039;53.060;9.342;2024-03-29T00:52:51;98997.41;;;5.15;100.00
75460;BME280;64039;53.060;9.342;2024-03-29T00:55:18;99004.13;;;5.05;100.00
75460;BME280;64039;53.060;9.342;2024-03-29T00:57:43;98995.59;;;5.08;100.00
75460;BME280;64039;53.060;9.342;2024-03-29T01:00:09;98998.03;;;4.98;100.00
75460;BME280;64039;53.060;9.342;2024-03-29T01:02:36;99001.66;;;5.11;100.00
75460;BME280;64039;53.060;9.342;2024-03-29T01:05:01;99001.59;;;5.10;100.00
75460;BME280;64039;53.060;9.342;2024-03-29T01:07:28;98999.06;;;5.13;100.00
75460;BME280;64039;53.060;9.342;2024-03-29T01:09:53;99000.88;;;5.18;100.00
75460;BME280;64039;53.060;9.342;2024-03-29T01:12:19;99000.88;;;5.18;100.00
75460;BME280;64039;53.060;9.342;2024-03-29T01:14:45;98989.84;;;5.30;100.00
75460;BME280;64039;53.060;9.342;2024-03-29T01:17:11;98999.28;;;5.27;100.00
75460;BME280;64039;53.060;9.342;2024-03-29T01:19:36;98998.31;;;5.22;100.00
75460;BME280;64039;53.060;9.342;2024-03-29T01:22:03;98994.88;;;5.21;100.00
75460;BME280;64039;53.060;9.342;2024-03-29T01:24:29;98994.84;;;5.18;100.00
75460;BME280;64039;53.060;9.342;2024-03-29T01:26:55;99000.13;;;5.26;100.00
75460;BME280;64039;53.060;9.342;2024-03-29T01:29:20;98995.75;;;5.22;100.00
75460;BME280;64039;53.060;9.342;2024-03-29T01:31:45;98998.38;;;5.26;100.00
75460;BME280;64039;53.060;9.342;2024-03-29T01:34:11;98996.84;;;5.39;100.00
75460;BME280;64039;53.060;9.342;2024-03-29T01:36:36;98997.72;;;5.40;100.00
75460;BME280;64039;53.060;9.342;2024-03-29T01:39:02;99001.09;;;5.35;100.00
75460;BME280;64039;53.060;9.342;2024-03-29T01:41:27;98998.56;;;5.40;100.00
75460;BME280;64039;53.060;9.342;2024-03-29T01:43:53;98999.50;;;5.45;100.00
75460;BME280;64039;53.060;9.342;2024-03-29T01:46:21;98995.22;;;5.46;100.00
75460;BME280;64039;53.060;9.342;2024-03-29T01:48:49;98998.69;;;5.48;100.00
75460;BME280;64039;53.060;9.342;2024-03-29T01:51:17;98994.38;;;5.47;100.00
75460;BME280;64039;53.060;9.342;2024-03-29T01:53:44;98989.19;;;5.45;100.00
75460;BME280;64039;53.060;9.342;2024-03-29T01:56:10;98989.88;;;5.33;100.00
75460;BME280;64039;53.060;9.342;2024-03-29T01:58:37;98995.91;;;5.32;100.00
75460;BME280;64039;53.060;9.342;2024-03-29T02:01:05;98999.22;;;5.22;100.00
75460;BME280;64039;53.060;9.342;2024-03-29T02:03:32;98994.88;;;5.21;100.00
75460;BME280;64039;53.060;9.342;2024-03-29T02:05:58;98991.53;;;5.28;100.00
75460;BME280;64039;53.060;9.342;2024-03-29T02:08:24;98992.44;;;5.30;100.00
75460;BME280;64039;53.060;9.342;2024-03-29T02:10:51;99000.97;;;5.25;100.00
75460;BME280;64039;53.060;9.342;2024-03-29T02:13:16;99007.09;;;5.33;100.00
75460;BME280;64039;53.060;9.342;2024-03-29T02:15:42;99009.59;;;5.27;100.00
75460;BME280;64039;53.060;9.342;2024-03-29T02:18:08;99012.97;;;5.23;100.00
75460;BME280;64039;53.060;9.342;2024-03-29T02:20:34;99011.25;;;5.23;100.00
75460;BME280;64039;53.060;9.342;2024-03-29T02:23:19;99008.63;;;5.22;100.00
75460;BME280;64039;53.060;9.342;2024-03-29T02:25:45;99013.78;;;5.18;100.00
75460;BME280;64039;53.060;9.342;2024-03-29T02:28:16;99021.53;;;5.22;100.00
75460;BME280;64039;53.060;9.342;2024-03-29T02:30:41;99021.66;;;5.29;100.00
75460;BME280;64039;53.060;9.342;2024-03-29T02:33:07;99025.91;;;5.26;100.00
75460;BME280;64039;53.060;9.342;2024-03-29T02:35:32;99021.53;;;5.22;100.00
75460;BME280;64039;53.060;9.342;2024-03-29T02:37:57;99016.31;;;5.17;100.00
75460;BME280;64039;53.060;9.342;2024-03-29T02:40:23;99013.84;;;5.25;100.00
75460;BME280;64039;53.060;9.342;2024-03-29T02:42:49;99018.97;;;5.22;100.00
75460;BME280;64039;53.060;9.342;2024-03-29T02:45:15;99017.28;;;5.25;100.00
75460;BME280;64039;53.060;9.342;2024-03-29T02:47:41;99015.66;;;5.32;100.00
75460;BME280;64039;53.060;9.342;2024-03-29T02:50:09;99006.19;;;5.31;100.00
75460;BME280;64039;53.060;9.342;2024-03-29T02:52:34;99003.66;;;5.35;100.00
75460;BME280;64039;53.060;9.342;2024-03-29T02:55:00;99001.28;;;5.49;100.00
75460;BME280;64039;53.060;9.342;2024-03-29T02:57:25;98991.66;;;5.39;100.00
75460;BME280;64039;53.060;9.342;2024-03-29T02:59:51;98982.19;;;5.37;100.00
75460;BME280;64039;53.060;9.342;2024-03-29T03:02:16;98983.78;;;5.27;100.00
75460;BME280;64039;53.060;9.342;2024-03-29T03:04:42;98976.91;;;5.27;100.00
75460;BME280;64039;53.060;9.342;2024-03-29T03:07:07;98977.75;;;5.25;100.00
75460;BME280;64039;53.060;9.342;2024-03-29T03:09:51;98967.41;;;5.25;100.00
75460;BME280;64039;53.060;9.342;2024-03-29T03:12:35;98969.47;;;5.50;100.00
75460;BME280;64039;53.060;9.342;2024-03-29T03:15:01;98959.00;;;5.40;100.00
75460;BME280;64039;53.060;9.342;2024-03-29T03:17:28;98973.59;;;5.36;100.00
75460;BME280;64039;53.060;9.342;2024-03-29T03:19:54;98966.75;;;5.40;100.00
75460;BME280;64039;53.060;9.342;2024-03-29T03:22:19;98965.75;;;5.30;100.00
75460;BME280;64039;53.060;9.342;2024-03-29T03:24:45;98967.66;;;5.43;100.00
75460;BME280;64039;53.060;9.342;2024-03-29T03:27:10;98976.97;;;5.33;100.00
75460;BME280;64039;53.060;9.342;2024-03-29T03:29:36;98982.13;;;5.30;100.00
75460;BME280;64039;53.060;9.342;2024-03-29T03:32:01;98969.16;;;5.26;100.00
75460;BME280;64039;53.060;9.342;2024-03-29T03:34:27;98982.84;;;5.20;100.00
75460;BME280;64039;53.060;9.342;2024-03-29T03:36:53;98998.31;;;5.20;100.00
75460;BME280;64039;53.060;9.342;2024-03-29T03:39:18;98998.31;;;5.20;100.00
75460;BME280;64039;53.060;9.342;2024-03-29T03:41:44;98974.38;;;5.32;100.00
75460;BME280;64039;53.060;9.342;2024-03-29T03:44:09;98985.53;;;5.28;100.00
75460;BME280;64039;53.060;9.342;2024-03-29T03:46:34;98996.59;;;5.20;100.00
75460;BME280;64039;53.060;9.342;2024-03-29T03:49:00;98982.00;;;5.23;100.00
75460;BME280;64039;53.060;9.342;2024-03-29T03:51:25;98987.28;;;5.32;100.00
75460;BME280;64039;53.060;9.342;2024-03-29T03:53:51;98997.53;;;5.24;100.00
75460;BME280;64039;53.060;9.342;2024-03-29T03:56:16;99002.63;;;5.21;100.00
75460;BME280;64039;53.060;9.342;2024-03-29T03:58:44;99001.72;;;5.16;100.00
75460;BME280;64039;53.060;9.342;2024-03-29T04:01:09;98993.94;;;5.14;100.00
75460;BME280;64039;53.060;9.342;2024-03-29T04:03:35;98983.59;;;5.13;100.00
75460;BME280;64039;53.060;9.342;2024-03-29T04:06:03;98988.00;;;5.20;100.00
75460;BME280;64039;53.060;9.342;2024-03-29T04:08:29;98986.16;;;5.11;100.00
75460;BME280;64039;53.060;9.342;2024-03-29T04:10:54;98993.00;;;5.09;100.00
75460;BME280;64039;53.060;9.342;2024-03-29T04:13:20;98993.97;;;5.17;100.00
75460;BME280;64039;53.060;9.342;2024-03-29T04:15:45;98987.97;;;5.18;100.00
75460;BME280;64039;53.060;9.342;2024-03-29T04:18:10;98984.44;;;5.10;100.00
75460;BME280;64039;53.060;9.342;2024-03-29T04:20:36;99000.88;;;5.18;100.00
75460;BME280;64039;53.060;9.342;2024-03-29T04:23:04;98988.75;;;5.13;100.00
75460;BME280;64039;53.060;9.342;2024-03-29T04:25:30;98989.81;;;5.27;100.00
75460;BME280;64039;53.060;9.342;2024-03-29T04:27:55;98996.75;;;5.33;100.00
75460;BME280;64039;53.060;9.342;2024-03-29T04:30:20;98990.75;;;5.32;100.00
75460;BME280;64039;53.060;9.342;2024-03-29T04:32:46;98989.94;;;5.37;100.00
75460;BME280;64039;53.060;9.342;2024-03-29T04:35:11;98999.47;;;5.42;100.00
75460;BME280;64039;53.060;9.342;2024-03-29T04:37:37;99012.25;;;5.34;100.00
75460;BME280;64039;53.060;9.342;2024-03-29T04:40:02;99007.94;;;5.33;100.00
75460;BME280;64039;53.060;9.342;2024-03-29T04:42:29;99009.66;;;5.31;100.00
75460;BME280;64039;53.060;9.342;2024-03-29T04:44:54;98998.50;;;5.32;100.00
75460;BME280;64039;53.060;9.342;2024-03-29T04:47:19;99001.97;;;5.38;100.00
75460;BME280;64039;53.060;9.342;2024-03-29T04:49:45;98998.56;;;5.39;100.00
75460;BME280;64039;53.060;9.342;2024-03-29T04:52:10;99012.53;;;5.56;100.00
75460;BME280;64039;53.060;9.342;2024-03-29T04:54:36;99014.22;;;5.53;100.00
75460;BME280;64039;53.060;9.342;2024-03-29T04:57:02;99009.13;;;5.59;100.00
75460;BME280;64039;53.060;9.342;2024-03-29T04:59:31;99002.34;;;5.65;100.00
75460;BME280;64039;53.060;9.342;2024-03-29T05:01:58;99005.72;;;5.63;100.00
75460;BME280;64039;53.060;9.342;2024-03-29T05:04:24;99022.28;;;5.80;100.00
75460;BME280;64039;53.060;9.342;2024-03-29T05:06:56;99018.78;;;5.74;100.00
75460;BME280;64039;53.060;9.342;2024-03-29T05:09:22;99017.09;;;5.79;100.00
75460;BME280;64039;53.060;9.342;2024-03-29T05:11:48;99014.50;;;5.77;100.00
75460;BME280;64039;53.060;9.342;2024-03-29T05:14:15;99017.09;;;5.80;100.00
75460;BME280;64039;53.060;9.342;2024-03-29T05:16:43;99028.34;;;5.84;100.00
75460;BME280;64039;53.060;9.342;2024-03-29T05:19:09;99032.69;;;5.87;100.00
75460;BME280;64039;53.060;9.342;2024-03-29T05:21:34;99032.75;;;5.93;100.00
75460;BME280;64039;53.060;9.342;2024-03-29T05:24:00;99051.63;;;5.89;100.00
75460;BME280;64039;53.060;9.342;2024-03-29T05:26:25;99045.63;;;5.90;100.00
75460;BME280;64039;53.060;9.342;2024-03-29T05:28:50;99056.00;;;5.94;100.00
75460;BME280;64039;53.060;9.342;2024-03-29T05:31:16;99061.16;;;5.91;100.00
75460;BME280;64039;53.060;9.342;2024-03-29T05:33:42;99056.00;;;5.91;100.00
75460;BME280;64039;53.060;9.342;2024-03-29T05:36:07;99037.22;;;6.06;100.00
75460;BME280;64039;53.060;9.342;2024-03-29T05:38:36;99042.44;;;6.11;100.00
75460;BME280;64039;53.060;9.342;2024-03-29T05:41:01;99048.50;;;6.11;100.00
75460;BME280;64039;53.060;9.342;2024-03-29T05:43:27;99041.69;;;6.21;100.00
75460;BME280;64039;53.060;9.342;2024-03-29T05:45:53;99047.72;;;6.19;100.00
75460;BME280;64039;53.060;9.342;2024-03-29T05:48:18;99052.94;;;6.26;100.00
75460;BME280;64039;53.060;9.342;2024-03-29T05:50:44;99069.31;;;6.28;100.00
75460;BME280;64039;53.060;9.342;2024-03-29T05:53:10;99060.78;;;6.33;100.00
75460;BME280;64039;53.060;9.342;2024-03-29T05:55:36;99049.59;;;6.37;100.00
75460;BME280;64039;53.060;9.342;2024-03-29T05:58:04;99057.44;;;6.44;100.00
75460;BME280;64039;53.060;9.342;2024-03-29T06:00:32;99067.81;;;6.51;100.00
75460;BME280;64039;53.060;9.342;2024-03-29T06:02:58;99088.53;;;6.54;100.00
75460;BME280;64039;53.060;9.342;2024-03-29T06:05:24;99089.44;;;6.59;100.00
75460;BME280;64039;53.060;9.342;2024-03-29T06:07:49;99087.66;;;6.55;100.00
75460;BME280;64039;53.060;9.342;2024-03-29T06:10:15;99085.16;;;6.64;100.00
75460;BME280;64039;53.060;9.342;2024-03-29T06:12:42;99093.06;;;6.76;100.00
75460;BME280;64039;53.060;9.342;2024-03-29T06:15:07;99105.09;;;6.76;100.00
75460;BME280;64039;53.060;9.342;2024-03-29T06:17:51;99099.13;;;6.80;100.00
75460;BME280;64039;53.060;9.342;2024-03-29T06:20:17;99100.03;;;6.88;100.00
75460;BME280;64039;53.060;9.342;2024-03-29T06:22:44;99112.19;;;6.97;100.00
75460;BME280;64039;53.060;9.342;2024-03-29T06:25:10;99113.06;;;6.99;100.00
75460;BME280;64039;53.060;9.342;2024-03-29T06:27:36;99118.31;;;7.10;100.00
75460;BME280;64039;53.060;9.342;2024-03-29T06:30:04;99132.19;;;7.18;100.00
75460;BME280;64039;53.060;9.342;2024-03-29T06:32:31;99138.22;;;7.17;100.00
75460;BME280;64039;53.060;9.342;2024-03-29T06:34:57;99137.38;;;7.21;100.00
75460;BME280;64039;53.060;9.342;2024-03-29T06:37:22;99128.84;;;7.32;100.00
75460;BME280;64039;53.060;9.342;2024-03-29T06:39:50;99128.84;;;7.30;100.00
75460;BME280;64039;53.060;9.342;2024-03-29T06:42:16;99134.97;;;7.46;100.00
75460;BME280;64039;53.060;9.342;2024-03-29T06:44:42;99135.88;;;7.50;100.00
75460;BME280;64039;53.060;9.342;2024-03-29T06:47:08;99138.44;;;7.47;100.00
75460;BME280;64039;53.060;9.342;2024-03-29T06:49:34;99144.53;;;7.58;100.00
75460;BME280;64039;53.060;9.342;2024-03-29T06:52:00;99141.94;;;7.55;100.00
75460;BME280;64039;53.060;9.342;2024-03-29T06:54:30;99137.72;;;7.68;100.00
75460;BME280;64039;53.060;9.342;2024-03-29T06:56:56;99139.44;;;7.70;100.00
75460;BME280;64039;53.060;9.342;2024-03-29T06:59:22;99135.19;;;7.82;100.00
75460;BME280;64039;53.060;9.342;2024-03-29T07:01:48;99132.59;;;7.79;100.00
75460;BME280;64039;53.060;9.342;2024-03-29T07:04:18;99136.00;;;7.75;100.00
75460;BME280;64039;53.060;9.342;2024-03-29T07:06:45;99148.13;;;7.80;100.00
75460;BME280;64039;53.060;9.342;2024-03-29T07:09:15;99142.09;;;7.83;100.00
75460;BME280;64039;53.060;9.342;2024-03-29T07:11:40;99137.78;;;7.82;100.00
75460;BME280;64039;53.060;9.342;2024-03-29T07:14:06;99139.47;;;7.77;100.00
75460;BME280;64039;53.060;9.342;2024-03-29T07:16:31;99140.41;;;7.90;100.00
75460;BME280;64039;53.060;9.342;2024-03-29T07:18:57;99139.53;;;7.86;100.00
75460;BME280;64039;53.060;9.342;2024-03-29T07:21:23;99144.72;;;7.94;100.00
75460;BME280;64039;53.060;9.342;2024-03-29T07:23:49;99144.72;;;7.92;100.00
75460;BME280;64039;53.060;9.342;2024-03-29T07:26:14;99144.75;;;7.91;100.00
75460;BME280;64039;53.060;9.342;2024-03-29T07:28:40;99151.66;;;7.93;100.00
75460;BME280;64039;53.060;9.342;2024-03-29T07:31:06;99144.75;;;7.98;100.00
75460;BME280;64039;53.060;9.342;2024-03-29T07:33:36;99151.72;;;8.01;100.00
75460;BME280;64039;53.060;9.342;2024-03-29T07:36:01;99149.09;;;7.99;100.00
75460;BME280;64039;53.060;9.342;2024-03-29T07:38:29;99147.34;;;7.98;100.00
75460;BME280;64039;53.060;9.342;2024-03-29T07:40:55;99153.41;;;8.00;100.00
75460;BME280;64039;53.060;9.342;2024-03-29T07:43:21;99143.97;;;8.12;100.00
75460;BME280;64039;53.060;9.342;2024-03-29T07:45:47;99140.50;;;8.08;100.00
75460;BME280;64039;53.060;9.342;2024-03-29T07:48:15;99144.84;;;8.18;100.00
75460;BME280;64039;53.060;9.342;2024-03-29T07:50:46;99148.38;;;8.39;100.00
75460;BME280;64039;53.060;9.342;2024-03-29T07:53:11;99144.97;;;8.43;100.00
75460;BME280;64039;53.060;9.342;2024-03-29T07:55:39;99138.97;;;8.61;100.00
75460;BME280;64039;53.060;9.342;2024-03-29T07:58:06;99128.50;;;8.43;100.00
75460;BME280;64039;53.060;9.342;2024-03-29T08:00:34;99132.03;;;8.51;100.00
75460;BME280;64039;53.060;9.342;2024-03-29T08:03:00;99137.22;;;8.49;100.00
75460;BME280;64039;53.060;9.342;2024-03-29T08:05:27;99135.41;;;8.34;100.00
75460;BME280;64039;53.060;9.342;2024-03-29T08:07:53;99125.13;;;8.55;100.00
75460;BME280;64039;53.060;9.342;2024-03-29T08:10:18;99120.81;;;8.61;100.00
75460;BME280;64039;53.060;9.342;2024-03-29T08:12:44;99118.22;;;8.57;100.00
75460;BME280;64039;53.060;9.342;2024-03-29T08:15:09;99115.59;;;8.58;100.00
75460;BME280;64039;53.060;9.342;2024-03-29T08:17:36;99098.25;;;8.42;100.00
75460;BME280;64039;53.060;9.342;2024-03-29T08:20:01;99091.41;;;8.47;100.00
75460;BME280;64039;53.060;9.342;2024-03-29T08:22:28;99075.84;;;8.55;100.00
75460;BME280;64039;53.060;9.342;2024-03-29T08:24:54;99067.22;;;8.68;100.00
75460;BME280;64039;53.060;9.342;2024-03-29T08:27:19;99076.72;;;8.74;100.00
75460;BME280;64039;53.060;9.342;2024-03-29T08:29:45;99075.88;;;8.83;100.00
75460;BME280;64039;53.060;9.342;2024-03-29T08:32:10;99093.16;;;8.63;100.00
75460;BME280;64039;53.060;9.342;2024-03-29T08:34:39;99082.78;;;8.63;100.00
75460;BME280;64039;53.060;9.342;2024-03-29T08:37:05;99093.16;;;8.65;100.00
75460;BME280;64039;53.060;9.342;2024-03-29T08:39:31;99088.81;;;8.53;100.00
75460;BME280;64039;53.060;9.342;2024-03-29T08:41:58;99089.69;;;8.63;100.00
75460;BME280;64039;53.060;9.342;2024-03-29T08:44:23;99088.75;;;8.39;100.00
75460;BME280;64039;53.060;9.342;2024-03-29T08:46:50;99087.00;;;8.32;100.00
75460;BME280;64039;53.060;9.342;2024-03-29T08:49:17;99090.50;;;8.43;100.00
75460;BME280;64039;53.060;9.342;2024-03-29T08:51:42;99099.13;;;8.45;100.00
75460;BME280;64039;53.060;9.342;2024-03-29T08:54:08;99087.94;;;8.51;100.00
75460;BME280;64039;53.060;9.342;2024-03-29T08:56:34;99083.66;;;8.69;100.00
75460;BME280;64039;53.060;9.342;2024-03-29T08:59:05;99078.44;;;8.64;100.00
75460;BME280;64039;53.060;9.342;2024-03-29T09:01:39;99083.66;;;8.96;100.00
75460;BME280;64039;53.060;9.342;2024-03-29T09:04:04;99093.19;;;8.93;100.00
75460;BME280;64039;53.060;9.342;2024-03-29T09:06:32;99100.94;;;9.05;100.00
75460;BME280;64039;53.060;9.342;2024-03-29T09:08:58;99096.63;;;8.81;100.00
75460;BME280;64039;53.060;9.342;2024-03-29T09:11:24;99094.88;;;8.72;100.00
75460;BME280;64039;53.060;9.342;2024-03-29T09:13:50;99100.06;;;8.63;100.00
75460;BME280;64039;53.060;9.342;2024-03-29T09:16:15;99103.53;;;8.59;100.00
75460;BME280;64039;53.060;9.342;2024-03-29T09:18:41;99102.63;;;8.49;100.00
75460;BME280;64039;53.060;9.342;2024-03-29T09:21:06;99093.94;;;8.41;100.00
75460;BME280;64039;53.060;9.342;2024-03-29T09:23:34;99097.41;;;8.35;100.00
75460;BME280;64039;53.060;9.342;2024-03-29T09:25:59;99097.38;;;8.29;100.00
75460;BME280;64039;53.060;9.342;2024-03-29T09:28:25;99083.50;;;8.21;100.00
75460;BME280;64039;53.060;9.342;2024-03-29T09:30:57;99088.72;;;8.25;100.00
75460;BME280;64039;53.060;9.342;2024-03-29T09:33:24;99091.34;;;8.33;100.00
75460;BME280;64039;53.060;9.342;2024-03-29T09:35:49;99080.16;;;8.53;100.00
75460;BME280;64039;53.060;9.342;2024-03-29T09:38:15;99081.00;;;8.42;100.00
75460;BME280;64039;53.060;9.342;2024-03-29T09:40:41;99076.72;;;8.58;100.00
75460;BME280;64039;53.060;9.342;2024-03-29T09:43:09;99075.84;;;8.75;100.00
75460;BME280;64039;53.060;9.342;2024-03-29T09:45:35;99062.88;;;8.61;100.00
75460;BME280;64039;53.060;9.342;2024-03-29T09:48:07;99065.50;;;8.83;100.00
75460;BME280;64039;53.060;9.342;2024-03-29T09:50:36;99059.44;;;8.99;100.00
75460;BME280;64039;53.060;9.342;2024-03-29T09:53:04;99047.28;;;9.27;100.00
75460;BME280;64039;53.060;9.342;2024-03-29T09:55:30;99037.66;;;9.68;100.00
75460;BME280;64039;53.060;9.342;2024-03-29T09:57:57;99041.00;;;9.97;100.00
75460;BME280;64039;53.060;9.342;2024-03-29T10:00:23;99047.88;;;10.04;100.00
75460;BME280;64039;53.060;9.342;2024-03-29T10:02:50;99047.84;;;10.10;100.00
75460;BME280;64039;53.060;9.342;2024-03-29T10:05:18;99044.22;;;10.33;100.00
75460;BME280;64039;53.060;9.342;2024-03-29T10:07:45;99040.63;;;10.60;100.00
75460;BME280;64039;53.060;9.342;2024-03-29T10:10:11;99041.47;;;10.61;100.00
75460;BME280;64039;53.060;9.342;2024-03-29T10:12:37;99036.06;;;10.85;100.00
75460;BME280;64039;53.060;9.342;2024-03-29T10:15:03;99037.38;;;10.24;100.00
75460;BME280;64039;53.060;9.342;2024-03-29T10:17:47;99033.03;;;10.23;100.00
75460;BME280;64039;53.060;9.342;2024-03-29T10:20:17;99032.28;;;10.07;100.00
75460;BME280;64039;53.060;9.342;2024-03-29T10:22:43;99034.00;;;10.10;100.00
75460;BME280;64039;53.060;9.342;2024-03-29T10:25:10;99027.94;;;10.04;100.00
75460;BME280;64039;53.060;9.342;2024-03-29T10:27:36;99039.09;;;10.25;100.00
75460;BME280;64039;53.060;9.342;2024-03-29T10:30:01;99044.25;;;10.34;100.00
75460;BME280;64039;53.060;9.342;2024-03-29T10:32:29;99057.97;;;10.60;100.00
75460;BME280;64039;53.060;9.342;2024-03-29T10:34:54;99046.75;;;10.51;100.00
75460;BME280;64039;53.060;9.342;2024-03-29T10:37:20;99044.22;;;10.44;100.00
75460;BME280;64039;53.060;9.342;2024-03-29T10:39:52;99049.59;;;10.06;100.00
75460;BME280;64039;53.060;9.342;2024-03-29T10:42:20;99064.19;;;10.35;100.00
75460;BME280;64039;53.060;9.342;2024-03-29T10:44:48;99051.19;;;10.32;100.00
75460;BME280;64039;53.060;9.342;2024-03-29T10:47:18;99045.97;;;10.32;100.00
75460;BME280;64039;53.060;9.342;2024-03-29T10:49:44;99046.16;;;10.03;100.00
75460;BME280;64039;53.060;9.342;2024-03-29T10:52:13;99055.59;;;10.16;100.00
75460;BME280;64039;53.060;9.342;2024-03-29T10:54:44;99056.44;;;10.20;100.00
75460;BME280;64039;53.060;9.342;2024-03-29T10:57:14;99062.53;;;10.17;100.00
75460;BME280;64039;53.060;9.342;2024-03-29T10:59:47;99073.75;;;10.26;100.00
75460;BME280;64039;53.060;9.342;2024-03-29T11:02:35;99058.16;;;10.21;100.00
75460;BME280;64039;53.060;9.342;2024-03-29T11:05:06;99061.63;;;10.25;100.00
75460;BME280;64039;53.060;9.342;2024-03-29T11:07:39;99056.41;;;10.25;100.00
75460;BME280;64039;53.060;9.342;2024-03-29T11:10:05;99061.59;;;10.29;100.00
75460;BME280;64039;53.060;9.342;2024-03-29T11:12:41;99064.19;;;10.31;100.00
75460;BME280;64039;53.060;9.342;2024-03-29T11:15:15;99065.91;;;10.40;100.00
75460;BME280;64039;53.060;9.342;2024-03-29T11:17:44;99073.56;;;10.60;100.00
75460;BME280;64039;53.060;9.342;2024-03-29T11:20:10;99074.13;;;11.00;100.00
75460;BME280;64039;53.060;9.342;2024-03-29T11:22:39;99066.88;;;11.37;100.00
75460;BME280;64039;53.060;9.342;2024-03-29T11:25:04;99082.38;;;11.46;100.00
75460;BME280;64039;53.060;9.342;2024-03-29T11:27:30;99085.72;;;11.59;100.00
75460;BME280;64039;53.060;9.342;2024-03-29T11:29:55;99071.28;;;11.28;100.00
75460;BME280;64039;53.060;9.342;2024-03-29T11:32:37;99079.75;;;11.46;100.00
75460;BME280;64039;53.060;9.342;2024-03-29T11:35:04;99075.19;;;11.70;100.00
75460;BME280;64039;53.060;9.342;2024-03-29T11:37:30;99077.41;;;12.02;100.00
75460;BME280;64039;53.060;9.342;2024-03-29T11:40:00;99065.09;;;12.15;100.00
75460;BME280;64039;53.060;9.342;2024-03-29T11:42:47;99061.44;;;12.29;100.00
75460;BME280;64039;53.060;9.342;2024-03-29T11:45:12;99070.28;;;12.18;100.00
75460;BME280;64039;53.060;9.342;2024-03-29T11:47:40;99076.16;;;12.33;100.00
75460;BME280;64039;53.060;9.342;2024-03-29T11:50:07;99064.81;;;12.35;100.00
75460;BME280;64039;53.060;9.342;2024-03-29T11:52:34;99056.34;;;12.19;100.00
75460;BME280;64039;53.060;9.342;2024-03-29T11:55:00;99066.78;;;12.19;100.00
75460;BME280;64039;53.060;9.342;2024-03-29T11:57:26;99060.78;;;12.13;100.00
75460;BME280;64039;53.060;9.342;2024-03-29T11:59:51;99060.06;;;11.96;100.00
75460;BME280;64039;53.060;9.342;2024-03-29T12:02:17;99062.84;;;11.84;100.00
75460;BME280;64039;53.060;9.342;2024-03-29T12:04:43;99066.06;;;12.08;100.00
75460;BME280;64039;53.060;9.342;2024-03-29T12:07:09;99068.78;;;12.00;100.00
75460;BME280;64039;53.060;9.342;2024-03-29T12:09:35;99066.09;;;12.06;100.00
75460;BME280;64039;53.060;9.342;2024-03-29T12:12:05;99076.28;;;12.23;100.00
75460;BME280;64039;53.060;9.342;2024-03-29T12:14:34;99064.38;;;12.66;100.00
75460;BME280;64039;53.060;9.342;2024-03-29T12:17:01;99076.44;;;12.72;100.00
75460;BME280;64039;53.060;9.342;2024-03-29T12:19:26;99080.19;;;13.10;100.00
75460;BME280;64039;53.060;9.342;2024-03-29T12:21:53;99099.13;;;13.23;100.00
75460;BME280;64039;53.060;9.342;2024-03-29T12:24:19;99090.47;;;13.19;100.00
75460;BME280;64039;53.060;9.342;2024-03-29T12:26:44;99100.69;;;12.82;100.00
75460;BME280;64039;53.060;9.342;2024-03-29T12:29:10;99099.25;;;13.17;100.00
75460;BME280;64039;53.060;9.342;2024-03-29T12:31:35;99098.84;;;13.42;100.00
75460;BME280;64039;53.060;9.342;2024-03-29T12:34:02;99114.69;;;13.29;98.17
75460;BME280;64039;53.060;9.342;2024-03-29T12:36:27;99107.88;;;13.20;98.56
75460;BME280;64039;53.060;9.342;2024-03-29T12:38:55;99102.34;;;12.86;100.00
75460;BME280;64039;53.060;9.342;2024-03-29T12:41:23;99090.09;;;12.91;100.00
75460;BME280;64039;53.060;9.342;2024-03-29T12:43:50;99098.44;;;13.13;100.00
75460;BME280;64039;53.060;9.342;2024-03-29T12:46:17;99107.66;;;12.80;100.00
75460;BME280;64039;53.060;9.342;2024-03-29T12:48:43;99117.25;;;12.78;100.00
75460;BME280;64039;53.060;9.342;2024-03-29T12:51:08;99124.09;;;12.85;100.00
75460;BME280;64039;53.060;9.342;2024-03-29T12:53:34;99135.31;;;12.92;100.00
75460;BME280;64039;53.060;9.342;2024-03-29T12:56:03;99147.63;;;12.83;100.00